Time;durP1;ratioP1;P1;durP2;ratioP2;P2;SDS_P1;SDS_P2;PMS_P1;PMS_P2;Temp;Humidity;BMP_temperature;BMP_pressure;BME280_temperature;BME280_humidity;BME280_pressure;Samples;Min_cycle;Max_cycle;Signal;HPM_P1;HPM_P2
2022/08/21 00:01:37;;;;;;;19.58;13.20;;;;;;;;;;4982820;28;20486;-79
2022/08/21 00:04:23;;;;;;;17.48;13.80;;;;;;;;;;4982786;28;20046;-79
2022/08/21 00:07:09;;;;;;;19.10;13.88;;;;;;;;;;4983075;28;20051;-81
2022/08/21 00:09:54;;;;;;;20.63;13.88;;;;;;;;;;4982533;28;20043;-80
2022/08/21 00:12:40;;;;;;;20.90;13.77;;;;;;;;;;4976403;28;20046;-79
2022/08/21 00:15:29;;;;;;;18.35;13.20;;;;;;;;;;4976451;28;20055;-81
2022/08/21 00:18:16;;;;;;;18.95;13.50;;;;;;;;;;4983413;28;20054;-80
2022/08/21 00:21:01;;;;;;;18.30;13.70;;;;;;;;;;4982860;28;20059;-79
2022/08/21 00:23:47;;;;;;;17.52;13.07;;;;;;;;;;4982477;28;20050;-80
2022/08/21 00:26:32;;;;;;;23.80;13.88;;;;;;;;;;4976253;28;20047;-80
2022/08/21 00:29:18;;;;;;;15.70;12.13;;;;;;;;;;4982353;28;20046;-79
2022/08/21 00:32:04;;;;;;;21.25;13.43;;;;;;;;;;4982372;28;20050;-80
2022/08/21 00:34:50;;;;;;;19.10;12.63;;;;;;;;;;4981704;28;20050;-79
2022/08/21 00:37:36;;;;;;;16.33;12.80;;;;;;;;;;4982209;28;20429;-80
2022/08/21 00:40:26;;;;;;;19.13;13.10;;;;;;;;;;4982449;28;20055;-80
2022/08/21 00:43:16;;;;;;;17.60;12.95;;;;;;;;;;4981760;28;20051;-79
2022/08/21 00:46:04;;;;;;;18.50;12.65;;;;;;;;;;4976399;28;20051;-80
2022/08/21 00:48:49;;;;;;;22.45;13.57;;;;;;;;;;4982439;28;20055;-81
2022/08/21 00:51:40;;;;;;;18.35;12.65;;;;;;;;;;4981629;28;20055;-80
2022/08/21 00:54:27;;;;;;;17.23;13.23;;;;;;;;;;4982470;28;20466;-80
2022/08/21 00:57:20;;;;;;;19.73;14.43;;;;;;;;;;4981530;28;20486;-80
2022/08/21 01:00:11;;;;;;;21.45;14.50;;;;;;;;;;4976587;28;20050;-80
2022/08/21 01:02:59;;;;;;;16.50;13.00;;;;;;;;;;4981961;28;20054;-80
2022/08/21 01:05:45;;;;;;;21.90;13.38;;;;;;;;;;4983608;28;20054;-80
2022/08/21 01:08:32;;;;;;;23.05;13.95;;;;;;;;;;4977147;28;20390;-79
2022/08/21 01:11:17;;;;;;;17.23;13.50;;;;;;;;;;4981581;28;20042;-80
2022/08/21 01:14:02;;;;;;;18.02;13.63;;;;;;;;;;4981957;28;20054;-80
2022/08/21 01:16:51;;;;;;;17.27;13.27;;;;;;;;;;4981656;28;20050;-79
2022/08/21 01:19:36;;;;;;;21.42;13.65;;;;;;;;;;4981299;28;20047;-80
2022/08/21 01:22:22;;;;;;;16.73;13.40;;;;;;;;;;4975333;28;20474;-80
2022/08/21 01:25:10;;;;;;;15.70;13.18;;;;;;;;;;4974631;28;20047;-80
2022/08/21 01:27:59;;;;;;;21.38;13.60;;;;;;;;;;4981996;28;20402;-80
2022/08/21 01:30:44;;;;;;;19.50;14.13;;;;;;;;;;4981534;28;20059;-80
2022/08/21 01:33:29;;;;;;;22.73;14.55;;;;;;;;;;4981247;28;20051;-80
2022/08/21 01:36:15;;;;;;;18.38;13.00;;;;;;;;;;4981244;28;20046;-79
2022/08/21 01:39:02;;;;;;;20.02;13.05;;;;;;;;;;4981587;28;20051;-80
2022/08/21 01:41:47;;;;;;;18.88;12.43;;;;;;;;;;4981741;28;20047;-79
2022/08/21 01:44:32;;;;;;;21.27;13.93;;;;;;;;;;4981678;28;20050;-80
2022/08/21 01:47:18;;;;;;;19.15;12.90;;;;;;;;;;4974338;28;20042;-78
2022/08/21 01:50:07;;;;;;;18.00;12.77;;;;;;;;;;4981399;28;20050;-79
2022/08/21 01:52:52;;;;;;;21.73;12.88;;;;;;;;;;4981373;28;20043;-79
2022/08/21 01:55:38;;;;;;;22.30;14.82;;;;;;;;;;4981438;28;20486;-80
2022/08/21 01:58:23;;;;;;;23.13;16.58;;;;;;;;;;4980024;28;20394;-80
2022/08/21 02:01:09;;;;;;;171.88;116.60;;;;;;;;;;4981174;28;20054;-79
2022/08/21 02:03:54;;;;;;;93.35;64.82;;;;;;;;;;4981074;28;20039;-80
2022/08/21 02:06:39;;;;;;;79.10;50.85;;;;;;;;;;4974575;28;20043;-80
2022/08/21 02:09:25;;;;;;;19.80;14.48;;;;;;;;;;4981030;28;20059;-80
2022/08/21 02:12:11;;;;;;;23.70;14.50;;;;;;;;;;4980994;28;20046;-79
2022/08/21 02:14:56;;;;;;;19.50;13.93;;;;;;;;;;4981179;28;20046;-80
2022/08/21 02:17:45;;;;;;;21.65;13.88;;;;;;;;;;4981413;28;20051;-79
2022/08/21 02:20:44;;;;;;;24.55;15.00;;;;;;;;;;4981350;28;20055;-81
2022/08/21 02:23:29;;;;;;;22.73;14.00;;;;;;;;;;4981404;28;20047;-80
2022/08/21 02:26:14;;;;;;;19.90;12.57;;;;;;;;;;4980823;28;20405;-79
2022/08/21 02:29:00;;;;;;;18.77;13.25;;;;;;;;;;4980893;28;20051;-79
2022/08/21 02:31:45;;;;;;;18.75;13.63;;;;;;;;;;4981439;28;20042;-80
2022/08/21 02:34:31;;;;;;;20.63;12.68;;;;;;;;;;4974893;28;20047;-80
2022/08/21 02:37:16;;;;;;;19.83;13.02;;;;;;;;;;4980471;28;20050;-80
2022/08/21 02:40:02;;;;;;;23.48;14.02;;;;;;;;;;4980708;28;20051;-80
2022/08/21 02:42:48;;;;;;;22.65;14.35;;;;;;;;;;4980524;28;20051;-80
2022/08/21 02:45:34;;;;;;;21.33;13.65;;;;;;;;;;4981020;28;20470;-79
2022/08/21 02:48:23;;;;;;;22.40;15.40;;;;;;;;;;4981211;28;20398;-79
2022/08/21 02:51:13;;;;;;;19.98;14.07;;;;;;;;;;4980564;28;20042;-80
2022/08/21 02:53:58;;;;;;;19.30;14.75;;;;;;;;;;4980958;28;20051;-81
2022/08/21 02:56:44;;;;;;;22.20;14.30;;;;;;;;;;4980865;28;20043;-81
2022/08/21 02:59:29;;;;;;;19.65;13.85;;;;;;;;;;4980156;28;20051;-80
2022/08/21 03:02:15;;;;;;;17.23;14.10;;;;;;;;;;4983540;28;20058;-80
2022/08/21 03:05:00;;;;;;;25.85;14.93;;;;;;;;;;4983855;28;20055;-80
2022/08/21 03:07:46;;;;;;;18.13;13.20;;;;;;;;;;4984227;28;20042;-80
2022/08/21 03:10:33;;;;;;;20.77;13.30;;;;;;;;;;4983769;28;20046;-80
2022/08/21 03:13:23;;;;;;;22.00;13.43;;;;;;;;;;4983776;28;20043;-80
2022/08/21 03:16:08;;;;;;;17.40;13.13;;;;;;;;;;4977724;28;20051;-79
2022/08/21 03:18:54;;;;;;;17.83;12.38;;;;;;;;;;4976909;28;20047;-80
2022/08/21 03:21:39;;;;;;;18.40;13.00;;;;;;;;;;4983723;28;20050;-80
2022/08/21 03:24:24;;;;;;;18.30;11.95;;;;;;;;;;4983793;28;20055;-80
2022/08/21 03:27:09;;;;;;;13.07;9.38;;;;;;;;;;4969194;28;20051;-80
2022/08/21 03:29:55;;;;;;;17.05;11.38;;;;;;;;;;4983715;28;20046;-80
2022/08/21 03:32:41;;;;;;;12.65;9.15;;;;;;;;;;4983297;28;20160;-79
2022/08/21 03:35:27;;;;;;;11.00;7.95;;;;;;;;;;4977573;28;20426;-80
2022/08/21 03:38:13;;;;;;;10.30;7.60;;;;;;;;;;4983462;28;20478;-80
2022/08/21 03:40:59;;;;;;;8.82;6.30;;;;;;;;;;4977390;28;20406;-80
2022/08/21 03:43:44;;;;;;;7.55;6.40;;;;;;;;;;4983869;28;20050;-79
2022/08/21 03:46:29;;;;;;;7.43;6.05;;;;;;;;;;4985352;28;20054;-81
2022/08/21 03:49:14;;;;;;;11.40;6.05;;;;;;;;;;4990888;28;20062;-79
2022/08/21 03:52:00;;;;;;;7.47;5.82;;;;;;;;;;4989201;28;20051;-80
2022/08/21 03:54:46;;;;;;;9.27;6.03;;;;;;;;;;4988353;28;20051;-80
2022/08/21 03:57:31;;;;;;;11.23;6.35;;;;;;;;;;4981386;28;20447;-79
2022/08/21 04:00:18;;;;;;;11.05;6.93;;;;;;;;;;4980749;28;20055;-80
2022/08/21 04:03:04;;;;;;;9.63;6.88;;;;;;;;;;4987269;28;20050;-80
2022/08/21 04:05:49;;;;;;;9.02;6.72;;;;;;;;;;4972444;28;20042;-80
2022/08/21 04:08:35;;;;;;;9.38;7.30;;;;;;;;;;4983380;28;20422;-80
2022/08/21 04:11:21;;;;;;;8.38;7.18;;;;;;;;;;4976221;28;20401;-81
2022/08/21 04:14:06;;;;;;;11.25;7.22;;;;;;;;;;4982311;28;20043;-79
2022/08/21 04:16:52;;;;;;;10.57;7.43;;;;;;;;;;4982981;28;20046;-81
2022/08/21 04:19:37;;;;;;;12.38;7.68;;;;;;;;;;4983129;28;20478;-80
2022/08/21 04:22:23;;;;;;;9.32;7.10;;;;;;;;;;4982774;28;20051;-80
2022/08/21 04:25:09;;;;;;;10.18;6.80;;;;;;;;;;4982855;28;20047;-79
2022/08/21 04:27:54;;;;;;;9.43;7.32;;;;;;;;;;4982450;28;20046;-79
2022/08/21 04:30:40;;;;;;;8.48;7.25;;;;;;;;;;4982367;28;20043;-81
2022/08/21 04:33:25;;;;;;;9.00;6.95;;;;;;;;;;4982352;28;20425;-80
2022/08/21 04:36:11;;;;;;;10.45;7.63;;;;;;;;;;4982228;28;20058;-80
2022/08/21 04:38:57;;;;;;;9.93;6.75;;;;;;;;;;4981735;28;20051;-79
2022/08/21 04:41:42;;;;;;;11.00;7.03;;;;;;;;;;4982150;28;20050;-80
2022/08/21 04:44:27;;;;;;;9.13;6.45;;;;;;;;;;4982046;28;20050;-80
2022/08/21 04:47:13;;;;;;;10.18;6.43;;;;;;;;;;4973089;28;20047;-79
2022/08/21 04:49:59;;;;;;;7.55;6.00;;;;;;;;;;4980703;28;20038;-80
2022/08/21 04:52:45;;;;;;;9.35;6.43;;;;;;;;;;4992266;28;20046;-79
2022/08/21 04:55:30;;;;;;;10.02;6.63;;;;;;;;;;4988159;28;20039;-80
2022/08/21 04:58:18;;;;;;;10.80;6.70;;;;;;;;;;4995224;28;20038;-79
2022/08/21 05:01:08;;;;;;;11.32;6.82;;;;;;;;;;4999900;28;20049;-80
2022/08/21 05:03:56;;;;;;;7.72;6.57;;;;;;;;;;4994389;28;20058;-81
2022/08/21 05:06:45;;;;;;;9.60;7.30;;;;;;;;;;4995144;28;20054;-81
2022/08/21 05:09:30;;;;;;;10.05;6.72;;;;;;;;;;5001079;28;20050;-81
2022/08/21 05:12:16;;;;;;;9.77;6.93;;;;;;;;;;5001491;28;20046;-79
2022/08/21 05:15:02;;;;;;;13.63;8.10;;;;;;;;;;5000704;28;20046;-80
2022/08/21 05:17:46;;;;;;;13.15;7.03;;;;;;;;;;4992650;28;20050;-80
2022/08/21 05:20:34;;;;;;;11.98;6.60;;;;;;;;;;5000550;28;20072;-80
2022/08/21 05:23:19;;;;;;;8.15;6.68;;;;;;;;;;5000890;28;20049;-80
2022/08/21 05:26:05;;;;;;;11.93;6.20;;;;;;;;;;5001344;28;20046;-80
2022/08/21 05:28:50;;;;;;;7.63;5.95;;;;;;;;;;5000911;28;20050;-81
2022/08/21 05:31:36;;;;;;;9.15;6.10;;;;;;;;;;5000211;28;20042;-81
2022/08/21 05:34:23;;;;;;;14.38;6.25;;;;;;;;;;5000967;28;20046;-80
2022/08/21 05:37:10;;;;;;;12.60;6.00;;;;;;;;;;5000526;28;20046;-81
2022/08/21 05:39:57;;;;;;;9.27;6.22;;;;;;;;;;4999260;28;20414;-81
2022/08/21 05:42:42;;;;;;;7.22;5.60;;;;;;;;;;4998254;28;20058;-81
2022/08/21 05:45:31;;;;;;;7.75;5.50;;;;;;;;;;5000533;28;20054;-81
2022/08/21 05:48:20;;;;;;;11.70;5.78;;;;;;;;;;5000669;28;20046;-80
2022/08/21 05:51:08;;;;;;;9.25;5.25;;;;;;;;;;5000464;28;20042;-81
2022/08/21 05:53:53;;;;;;;7.53;5.47;;;;;;;;;;4999425;28;20050;-81
2022/08/21 05:56:39;;;;;;;11.30;7.00;;;;;;;;;;4998726;28;20478;-81
2022/08/21 05:59:24;;;;;;;11.88;6.75;;;;;;;;;;4996307;28;20397;-80
2022/08/21 06:02:10;;;;;;;11.85;7.43;;;;;;;;;;5000706;28;20054;-81
2022/08/21 06:04:56;;;;;;;10.10;6.10;;;;;;;;;;5000589;28;20473;-81
2022/08/21 06:07:41;;;;;;;10.82;5.43;;;;;;;;;;5000986;28;20046;-81
2022/08/21 06:10:27;;;;;;;6.93;5.60;;;;;;;;;;5000667;28;20397;-79
2022/08/21 06:13:13;;;;;;;8.65;5.63;;;;;;;;;;4999349;28;20050;-82
2022/08/21 06:16:09;;;;;;;13.80;7.20;;;;;;;;;;5000445;28;20050;-80
2022/08/21 06:18:54;;;;;;;11.02;6.68;;;;;;;;;;5000051;28;20046;-81
2022/08/21 06:21:40;;;;;;;13.00;8.40;;;;;;;;;;5000929;28;20050;-82
2022/08/21 06:24:26;;;;;;;8.85;5.90;;;;;;;;;;4994187;28;20474;-81
2022/08/21 06:27:12;;;;;;;10.85;6.10;;;;;;;;;;5000810;28;20046;-81
2022/08/21 06:29:57;;;;;;;9.63;6.10;;;;;;;;;;5003342;28;20050;-82
2022/08/21 06:32:43;;;;;;;11.07;8.27;;;;;;;;;;5003883;28;20047;-79
2022/08/21 06:35:29;;;;;;;13.02;7.35;;;;;;;;;;5005638;28;20054;-82
2022/08/21 06:38:14;;;;;;;9.20;5.72;;;;;;;;;;5004250;28;20054;-81
2022/08/21 06:40:59;;;;;;;10.95;6.05;;;;;;;;;;5003931;28;20050;-81
2022/08/21 06:43:45;;;;;;;7.72;5.57;;;;;;;;;;5002061;28;20047;-81
2022/08/21 06:46:30;;;;;;;11.90;5.32;;;;;;;;;;4980744;28;20042;-82
2022/08/21 06:49:16;;;;;;;19.08;11.57;;;;;;;;;;5001478;28;20046;-81
2022/08/21 06:52:02;;;;;;;12.38;6.40;;;;;;;;;;4995772;28;20047;-81
2022/08/21 06:54:47;;;;;;;17.73;11.85;;;;;;;;;;4997586;28;20046;-82
2022/08/21 06:57:33;;;;;;;12.82;8.73;;;;;;;;;;4996293;28;20042;-81
2022/08/21 07:00:18;;;;;;;21.17;13.82;;;;;;;;;;4996046;28;20386;-82
2022/08/21 07:03:04;;;;;;;12.57;6.35;;;;;;;;;;4998913;28;20046;-83
2022/08/21 07:05:50;;;;;;;8.00;5.95;;;;;;;;;;4987330;28;20039;-83
2022/08/21 07:08:35;;;;;;;8.52;5.45;;;;;;;;;;4988712;28;20038;-81
2022/08/21 07:11:23;;;;;;;11.38;6.15;;;;;;;;;;4983775;28;20046;-81
2022/08/21 07:14:08;;;;;;;8.63;5.13;;;;;;;;;;4982192;28;20047;-83
2022/08/21 07:16:54;;;;;;;7.35;5.93;;;;;;;;;;5001574;28;20046;-81
2022/08/21 07:19:39;;;;;;;6.13;5.30;;;;;;;;;;4991675;28;20051;-83
2022/08/21 07:22:27;;;;;;;8.15;5.07;;;;;;;;;;4996569;28;20054;-81
2022/08/21 07:25:13;;;;;;;16.88;5.15;;;;;;;;;;5002016;28;20085;-82
2022/08/21 07:27:59;;;;;;;8.15;5.03;;;;;;;;;;5000977;28;20047;-81
2022/08/21 07:30:44;;;;;;;6.88;5.20;;;;;;;;;;4999127;28;20051;-83
2022/08/21 07:33:31;;;;;;;12.48;5.35;;;;;;;;;;5002946;28;20042;-81
2022/08/21 07:36:17;;;;;;;4.97;4.40;;;;;;;;;;4996157;28;20046;-82
2022/08/21 07:39:03;;;;;;;8.18;4.97;;;;;;;;;;4996306;28;20046;-84
2022/08/21 07:41:48;;;;;;;10.75;5.80;;;;;;;;;;5003135;28;20051;-81
2022/08/21 07:44:34;;;;;;;8.68;5.03;;;;;;;;;;5001020;28;20478;-83
2022/08/21 07:47:19;;;;;;;13.95;5.00;;;;;;;;;;4983734;28;20470;-82
2022/08/21 07:50:06;;;;;;;9.68;5.03;;;;;;;;;;4992971;28;20046;-82
2022/08/21 07:52:52;;;;;;;12.50;5.07;;;;;;;;;;4996022;28;20050;-83
2022/08/21 07:55:37;;;;;;;6.53;4.53;;;;;;;;;;4993562;28;20043;-82
2022/08/21 07:58:23;;;;;;;8.18;4.30;;;;;;;;;;4983350;28;20043;-84
2022/08/21 08:01:08;;;;;;;6.22;3.95;;;;;;;;;;4990361;28;20043;-81
2022/08/21 08:03:54;;;;;;;5.78;4.18;;;;;;;;;;4994039;28;20050;-83
2022/08/21 08:06:39;;;;;;;6.38;4.32;;;;;;;;;;4986655;28;20050;-81
2022/08/21 08:09:25;;;;;;;9.80;4.80;;;;;;;;;;4997235;28;20042;-82
2022/08/21 08:12:11;;;;;;;8.70;3.95;;;;;;;;;;4986455;28;20486;-81
2022/08/21 08:14:57;;;;;;;5.00;3.60;;;;;;;;;;4985547;28;20502;-81
2022/08/21 08:17:43;;;;;;;6.05;4.07;;;;;;;;;;4986767;28;20038;-84
2022/08/21 08:20:29;;;;;;;8.05;4.03;;;;;;;;;;4983154;28;20050;-82
2022/08/21 08:23:14;;;;;;;6.15;4.60;;;;;;;;;;4995743;28;20054;-81
2022/08/21 08:26:02;;;;;;;6.50;4.47;;;;;;;;;;4985928;28;20058;-82
2022/08/21 08:28:47;;;;;;;6.93;4.30;;;;;;;;;;4989031;28;20051;-83
2022/08/21 08:31:33;;;;;;;9.70;4.00;;;;;;;;;;4986547;28;20054;-82
2022/08/21 08:34:19;;;;;;;7.70;4.65;;;;;;;;;;4993344;28;20054;-84
2022/08/21 08:37:07;;;;;;;5.25;4.38;;;;;;;;;;4990000;28;20046;-81
2022/08/21 08:39:53;;;;;;;4.75;3.75;;;;;;;;;;4993426;28;20050;-82
2022/08/21 08:42:39;;;;;;;6.38;4.20;;;;;;;;;;4994753;28;20402;-82
2022/08/21 08:45:26;;;;;;;5.05;3.83;;;;;;;;;;5001816;28;20042;-83
2022/08/21 08:48:14;;;;;;;5.10;4.32;;;;;;;;;;4993955;28;20046;-82
2022/08/21 08:51:02;;;;;;;6.85;4.63;;;;;;;;;;4994199;28;20039;-83
2022/08/21 08:53:55;;;;;;;5.75;4.00;;;;;;;;;;5001064;28;20043;-81
2022/08/21 08:56:41;;;;;;;5.00;3.90;;;;;;;;;;4994701;28;20494;-81
2022/08/21 08:59:41;;;;;;;6.93;3.40;;;;;;;;;;4994664;28;20054;-83
2022/08/21 09:02:29;;;;;;;9.07;4.00;;;;;;;;;;4994022;28;20401;-83
2022/08/21 09:05:25;;;;;;;31.45;4.15;;;;;;;;;;4993245;28;20042;-83
2022/08/21 09:08:25;;;;;;;5.38;3.42;;;;;;;;;;5001204;28;20050;-83
2022/08/21 09:11:48;;;;;;;6.20;3.65;;;;;;;;;;5000140;28;20046;-82
2022/08/21 09:15:08;;;;;;;4.60;3.70;;;;;;;;;;4991964;28;20054;-81
2022/08/21 09:17:52;;;;;;;6.85;3.80;;;;;;;;;;5002226;28;20046;-83
2022/08/21 09:20:55;;;;;;;4.07;3.20;;;;;;;;;;5002727;28;20051;-82
2022/08/21 09:23:59;;;;;;;5.47;3.47;;;;;;;;;;4994478;28;20054;-82
2022/08/21 09:27:05;;;;;;;;;;;;;;;;;;4995321;28;20062;-84
2022/08/21 09:29:54;;;;;;;4.85;3.30;;;;;;;;;;4974660;28;19914;-82
2022/08/21 09:32:41;;;;;;;6.97;3.53;;;;;;;;;;4981468;28;20086;-83
2022/08/21 09:35:26;;;;;;;8.15;3.78;;;;;;;;;;4974952;28;20477;-82
2022/08/21 09:38:28;;;;;;;5.75;3.47;;;;;;;;;;4981529;28;20050;-81
2022/08/21 09:41:13;;;;;;;4.40;3.25;;;;;;;;;;4982027;28;20055;-80
2022/08/21 09:43:59;;;;;;;5.30;3.47;;;;;;;;;;4996603;28;20054;-81
2022/08/21 09:46:50;;;;;;;8.52;4.00;;;;;;;;;;4994318;28;20038;-82
2022/08/21 09:49:39;;;;;;;5.97;4.20;;;;;;;;;;4969146;28;20389;-82
2022/08/21 09:52:25;;;;;;;6.53;4.30;;;;;;;;;;4981350;28;20043;-82
2022/08/21 09:58:46;;;;;;;7.57;3.50;;;;;;;;;;4977186;28;20486;-82
2022/08/21 10:01:43;;;;;;;5.45;3.60;;;;;;;;;;4987267;28;20050;-80
2022/08/21 10:04:32;;;;;;;6.20;4.20;;;;;;;;;;4998494;28;20050;-83
2022/08/21 10:07:21;;;;;;;8.73;4.72;;;;;;;;;;4993553;28;20390;-81
2022/08/21 10:10:13;;;;;;;5.78;4.40;;;;;;;;;;4996884;28;20477;-82
2022/08/21 10:13:26;;;;;;;6.10;4.00;;;;;;;;;;5004396;28;20042;-82
2022/08/21 10:17:02;;;;;;;6.63;4.25;;;;;;;;;;5004554;28;20046;-81
2022/08/21 10:20:06;;;;;;;6.35;3.88;;;;;;;;;;4971849;28;20046;-80
2022/08/21 10:23:03;;;;;;;7.68;4.10;;;;;;;;;;4997936;28;20046;-81
2022/08/21 10:26:10;;;;;;;7.85;5.20;;;;;;;;;;5004129;28;20047;-81
2022/08/21 10:29:05;;;;;;;5.03;4.22;;;;;;;;;;4997765;28;20039;-80
2022/08/21 10:32:06;;;;;;;;;;;;;;;;;;4997858;28;20042;-82
2022/08/21 10:35:16;;;;;;;7.38;4.03;;;;;;;;;;5004217;28;19921;-81
2022/08/21 10:38:40;;;;;;;1.70;1.35;;;;;;;;;;5002843;28;20046;-81
2022/08/21 10:41:46;;;;;;;2.13;1.35;;;;;;;;;;5004347;28;20506;-81
2022/08/21 10:45:02;;;;;;;2.33;1.58;;;;;;;;;;5004033;28;20050;-80
2022/08/21 10:47:52;;;;;;;3.75;3.03;;;;;;;;;;5003988;28;20046;-81
2022/08/21 10:50:53;;;;;;;1.70;1.30;;;;;;;;;;5003637;28;20401;-80
2022/08/21 10:53:53;;;;;;;1.50;1.40;;;;;;;;;;5000073;28;20046;-82
2022/08/21 10:56:41;;;;;;;2.63;1.90;;;;;;;;;;4999649;28;20398;-79
2022/08/21 10:59:38;;;;;;;2.88;2.30;;;;;;;;;;4999900;28;20054;-80
2022/08/21 11:02:31;;;;;;;2.72;1.80;;;;;;;;;;4999100;28;20046;-79
2022/08/21 11:05:24;;;;;;;4.75;2.58;;;;;;;;;;4995085;28;20046;-79
2022/08/21 11:08:13;;;;;;;6.15;2.42;;;;;;;;;;4979464;28;20478;-78
2022/08/21 11:11:05;;;;;;;5.22;2.35;;;;;;;;;;5000445;28;20050;-82
2022/08/21 11:13:58;;;;;;;6.60;2.97;;;;;;;;;;4999827;28;20039;-81
2022/08/21 11:16:52;;;;;;;3.42;2.13;;;;;;;;;;4990975;28;20038;-78
2022/08/21 11:19:53;;;;;;;4.35;2.95;;;;;;;;;;4992813;28;20416;-80
2022/08/21 11:22:47;;;;;;;2.83;2.25;;;;;;;;;;4996094;28;20405;-80
2022/08/21 11:25:37;;;;;;;4.78;3.08;;;;;;;;;;4994950;28;20441;-78
2022/08/21 11:28:34;;;;;;;7.50;4.15;;;;;;;;;;4996409;28;20042;-83
2022/08/21 11:32:02;;;;;;;5.63;4.00;;;;;;;;;;4995831;28;20050;-82
2022/08/21 11:35:01;;;;;;;4.90;3.15;;;;;;;;;;4972624;28;20054;-81
2022/08/21 11:37:59;;;;;;;5.65;3.85;;;;;;;;;;4993797;28;20046;-82
2022/08/21 11:41:03;;;;;;;8.07;4.10;;;;;;;;;;5003693;28;20058;-79
2022/08/21 11:44:01;;;;;;;5.45;3.10;;;;;;;;;;5002757;28;20054;-79
2022/08/21 11:47:18;;;;;;;5.07;3.17;;;;;;;;;;5003057;28;20047;-79
2022/08/21 11:50:13;;;;;;;7.35;3.45;;;;;;;;;;5002526;28;20050;-82
2022/08/21 11:53:14;;;;;;;5.68;2.70;;;;;;;;;;4998656;28;20042;-81
2022/08/21 11:56:07;;;;;;;4.38;2.78;;;;;;;;;;4998486;28;20046;-79
2022/08/21 11:59:04;;;;;;;2.95;2.28;;;;;;;;;;5001204;28;20058;-80
2022/08/21 12:01:52;;;;;;;3.05;2.13;;;;;;;;;;4998303;28;20490;-81
2022/08/21 12:04:55;;;;;;;3.22;2.05;;;;;;;;;;5000783;28;20042;-82
2022/08/21 12:07:43;;;;;;;3.53;2.20;;;;;;;;;;4993674;28;20035;-79
2022/08/21 12:10:39;;;;;;;2.17;1.77;;;;;;;;;;4999955;28;20042;-82
2022/08/21 12:13:27;;;;;;;2.30;1.90;;;;;;;;;;5001320;28;20046;-81
2022/08/21 12:16:27;;;;;;;3.38;1.98;;;;;;;;;;4992876;28;20046;-79
2022/08/21 12:19:19;;;;;;;1.98;1.50;;;;;;;;;;4992806;28;20046;-82
2022/08/21 12:22:04;;;;;;;1.85;1.50;;;;;;;;;;4980749;28;20482;-81
2022/08/21 12:24:49;;;;;;;1.23;1.00;;;;;;;;;;4980605;28;20042;-79
2022/08/21 12:27:50;;;;;;;0.80;0.73;;;;;;;;;;4988800;28;20066;-79
2022/08/21 12:30:39;;;;;;;1.52;1.30;;;;;;;;;;4992575;28;20046;-79
2022/08/21 12:33:39;;;;;;;1.27;1.10;;;;;;;;;;5000058;28;20085;-78
2022/08/21 12:36:46;;;;;;;2.85;0.75;;;;;;;;;;5000736;28;20051;-79
2022/08/21 12:39:36;;;;;;;2.13;1.17;;;;;;;;;;5002316;28;20050;-80
2022/08/21 12:42:46;;;;;;;1.17;1.08;;;;;;;;;;5002115;28;20050;-81
2022/08/21 12:45:46;;;;;;;2.25;1.40;;;;;;;;;;5001539;28;20042;-83
2022/08/21 12:48:46;;;;;;;2.45;1.90;;;;;;;;;;4995299;28;20050;-82
2022/08/21 12:51:42;;;;;;;1.83;1.60;;;;;;;;;;5001389;28;20406;-80
2022/08/21 12:54:31;;;;;;;2.55;1.73;;;;;;;;;;5001657;28;20050;-80
2022/08/21 12:57:21;;;;;;;2.05;1.85;;;;;;;;;;4995656;28;20046;-81
2022/08/21 13:00:12;;;;;;;5.32;3.55;;;;;;;;;;4995691;28;20050;-78
2022/08/21 13:03:00;;;;;;;2.50;1.98;;;;;;;;;;4994814;28;20057;-79
2022/08/21 13:05:46;;;;;;;6.13;3.00;;;;;;;;;;5001600;28;20054;-82
2022/08/21 13:08:34;;;;;;;3.35;2.20;;;;;;;;;;5001384;28;20042;-80
2022/08/21 13:11:21;;;;;;;3.22;2.40;;;;;;;;;;5001295;28;20053;-79
2022/08/21 13:14:18;;;;;;;5.25;3.35;;;;;;;;;;5000825;28;20050;-81
2022/08/21 13:17:05;;;;;;;4.40;3.80;;;;;;;;;;4994632;28;20051;-81
2022/08/21 13:20:03;;;;;;;5.65;4.25;;;;;;;;;;5000960;28;20046;-80
2022/08/21 13:22:49;;;;;;;4.30;3.85;;;;;;;;;;5001029;28;20050;-81
2022/08/21 13:25:36;;;;;;;5.95;4.70;;;;;;;;;;4994484;28;20047;-82
2022/08/21 13:28:22;;;;;;;7.45;4.63;;;;;;;;;;5001260;28;20050;-82
2022/08/21 13:31:13;;;;;;;5.65;4.50;;;;;;;;;;5000839;28;20042;-82
2022/08/21 13:33:58;;;;;;;5.75;4.72;;;;;;;;;;5000801;28;20058;-82
2022/08/21 13:36:46;;;;;;;6.20;4.70;;;;;;;;;;5000822;28;20055;-81
2022/08/21 13:39:32;;;;;;;7.78;4.93;;;;;;;;;;4994709;28;20477;-80
2022/08/21 13:42:17;;;;;;;6.05;4.60;;;;;;;;;;4994424;28;20050;-81
2022/08/21 13:45:03;;;;;;;7.47;4.90;;;;;;;;;;4994377;28;20042;-81
2022/08/21 13:47:50;;;;;;;5.60;4.28;;;;;;;;;;5000560;28;20046;-80
2022/08/21 13:50:37;;;;;;;6.03;5.05;;;;;;;;;;5001164;28;20054;-83
2022/08/21 13:53:36;;;;;;;5.40;4.80;;;;;;;;;;4999298;28;20045;-82
2022/08/21 13:56:30;;;;;;;4.93;4.38;;;;;;;;;;5021191;28;20049;-82
2022/08/21 13:59:34;;;;;;;8.60;5.25;;;;;;;;;;5013972;28;20401;-83
2022/08/21 14:02:23;;;;;;;5.65;4.70;;;;;;;;;;5020183;28;20042;-82
2022/08/21 14:05:19;;;;;;;4.72;4.13;;;;;;;;;;5020208;28;20050;-81
2022/08/21 14:08:21;;;;;;;6.55;4.82;;;;;;;;;;5013665;28;20405;-81
2022/08/21 14:11:12;;;;;;;9.82;6.70;;;;;;;;;;5000560;28;20045;-83
2022/08/21 14:14:01;;;;;;;8.10;5.68;;;;;;;;;;5021090;28;20054;-83
2022/08/21 14:16:56;;;;;;;5.57;4.95;;;;;;;;;;5020398;28;20050;-82
2022/08/21 14:19:42;;;;;;;;;;;;;;;;;;5022579;28;20497;-82
2022/08/21 14:22:44;;;;;;;7.50;5.35;;;;;;;;;;5020797;28;20352;-82
2022/08/21 14:25:38;;;;;;;7.90;6.00;;;;;;;;;;5020457;28;20049;-81
2022/08/21 14:28:26;;;;;;;;;;;;;;;;;;5020682;28;20049;-79
2022/08/21 14:31:17;;;;;;;6.68;4.47;;;;;;;;;;5020153;28;20250;-80
2022/08/21 14:34:03;;;;;;;8.50;5.57;;;;;;;;;;5014353;28;20058;-82
2022/08/21 14:36:50;;;;;;;6.70;4.80;;;;;;;;;;5022485;28;20046;-81
2022/08/21 14:39:35;;;;;;;6.50;5.55;;;;;;;;;;5022195;28;20470;-80
2022/08/21 14:42:20;;;;;;;42.78;31.65;;;;;;;;;;5023574;28;20053;-79
2022/08/21 14:45:13;;;;;;;117.03;83.47;;;;;;;;;;5020501;28;20050;-81
2022/08/21 14:47:59;;;;;;;38.45;27.00;;;;;;;;;;5020116;28;20054;-81
2022/08/21 14:50:45;;;;;;;13.73;10.73;;;;;;;;;;5019879;28;20098;-81
2022/08/21 14:53:30;;;;;;;8.02;6.15;;;;;;;;;;5015139;28;20050;-81
2022/08/21 14:56:16;;;;;;;9.45;6.20;;;;;;;;;;5023050;28;20046;-84
2022/08/21 14:59:07;;;;;;;11.95;8.48;;;;;;;;;;5019299;28;20046;-81
2022/08/21 15:01:53;;;;;;;9.35;6.90;;;;;;;;;;5014939;28;20042;-82
2022/08/21 15:04:38;;;;;;;9.95;7.50;;;;;;;;;;5021433;28;20042;-84
2022/08/21 15:07:24;;;;;;;19.35;11.13;;;;;;;;;;5015149;28;20046;-81
2022/08/21 15:10:13;;;;;;;13.77;9.65;;;;;;;;;;5015643;28;20489;-82
2022/08/21 15:12:58;;;;;;;16.83;9.70;;;;;;;;;;5022075;28;20050;-82
2022/08/21 15:15:47;;;;;;;9.43;7.03;;;;;;;;;;5023068;28;20053;-82
2022/08/21 15:18:33;;;;;;;16.15;7.63;;;;;;;;;;5022647;28;20054;-81
2022/08/21 15:21:18;;;;;;;7.78;6.20;;;;;;;;;;5022598;28;20042;-81
2022/08/21 15:24:04;;;;;;;7.88;6.60;;;;;;;;;;5022839;28;20042;-82
2022/08/21 15:26:51;;;;;;;7.40;6.28;;;;;;;;;;5022317;28;20050;-82
2022/08/21 15:29:36;;;;;;;7.00;5.50;;;;;;;;;;5023070;28;20042;-83
2022/08/21 15:32:28;;;;;;;8.90;6.70;;;;;;;;;;5016112;28;20389;-82
2022/08/21 15:35:13;;;;;;;8.65;6.70;;;;;;;;;;5022662;28;20050;-81
2022/08/21 15:37:59;;;;;;;9.82;7.75;;;;;;;;;;5016083;28;20046;-82
2022/08/21 15:40:45;;;;;;;8.80;7.00;;;;;;;;;;5022307;28;20049;-79
2022/08/21 15:43:51;;;;;;;10.30;7.40;;;;;;;;;;5022266;28;20049;-82
2022/08/21 15:46:37;;;;;;;10.77;8.60;;;;;;;;;;5022222;28;20049;-80
2022/08/21 15:49:23;;;;;;;11.02;8.38;;;;;;;;;;5014111;28;20489;-81
2022/08/21 15:52:08;;;;;;;15.43;9.70;;;;;;;;;;5020439;28;20053;-82
2022/08/21 15:54:54;;;;;;;14.68;9.43;;;;;;;;;;5020247;28;20053;-84
2022/08/21 15:57:45;;;;;;;16.75;10.32;;;;;;;;;;5021149;28;20682;-83
2022/08/21 16:00:34;;;;;;;17.45;9.85;;;;;;;;;;5021590;28;20050;-82
2022/08/21 16:03:21;;;;;;;15.60;10.98;;;;;;;;;;5015376;28;20041;-83
2022/08/21 16:06:07;;;;;;;15.98;10.15;;;;;;;;;;5012787;28;20370;-80
2022/08/21 16:08:52;;;;;;;18.60;11.27;;;;;;;;;;5020108;28;20057;-83
2022/08/21 16:11:38;;;;;;;14.77;10.57;;;;;;;;;;5015331;28;20050;-81
2022/08/21 16:14:24;;;;;;;17.67;11.75;;;;;;;;;;5021903;28;20053;-82
2022/08/21 16:17:10;;;;;;;16.58;11.60;;;;;;;;;;5022070;28;20049;-82
2022/08/21 16:19:56;;;;;;;16.65;11.07;;;;;;;;;;5021624;28;20432;-81
2022/08/21 16:22:41;;;;;;;16.63;10.70;;;;;;;;;;5015046;28;20477;-83
2022/08/21 16:25:27;;;;;;;17.70;11.55;;;;;;;;;;5019626;28;20045;-81
2022/08/21 16:28:15;;;;;;;13.23;7.75;;;;;;;;;;5013829;28;20404;-79
2022/08/21 16:31:01;;;;;;;18.77;11.45;;;;;;;;;;5021297;28;20046;-83
2022/08/21 16:33:50;;;;;;;13.32;10.27;;;;;;;;;;5014401;28;20042;-79
2022/08/21 16:36:35;;;;;;;16.33;10.65;;;;;;;;;;5021036;28;20485;-82
2022/08/21 16:39:21;;;;;;;15.10;11.30;;;;;;;;;;5021610;28;20401;-81
2022/08/21 16:42:12;;;;;;;13.85;8.25;;;;;;;;;;5022042;28;20050;-81
2022/08/21 16:44:58;;;;;;;16.95;12.02;;;;;;;;;;5021444;28;20050;-81
2022/08/21 16:47:43;;;;;;;16.83;12.50;;;;;;;;;;5021361;28;20065;-80